createdAt,value
2022-12-19T00:01:01.947Z,97940.81
2022-12-19T00:03:28.684Z,97942.63
2022-12-19T00:05:55.437Z,97937.22
2022-12-19T00:08:22.099Z,97932.03
2022-12-19T00:11:00.256Z,97932.19
2022-12-19T00:13:26.917Z,97933.09
2022-12-19T00:15:54.895Z,97931.41
2022-12-19T00:18:21.590Z,97931.97
2022-12-19T00:20:58.590Z,97929.56
2022-12-19T00:23:25.258Z,97928.19
2022-12-19T00:25:51.923Z,97939.19
2022-12-19T00:28:18.878Z,97935.69
2022-12-19T00:30:46.917Z,97929.78
2022-12-19T00:33:13.554Z,97940.16
2022-12-19T00:35:40.207Z,97933.28
2022-12-19T00:38:06.841Z,97934.63
2022-12-19T00:40:33.473Z,97932.69
2022-12-19T00:43:00.095Z,97925.94
2022-12-19T00:45:27.366Z,97926.56
2022-12-19T00:47:55.822Z,97919.00
2022-12-19T00:50:22.458Z,97919.00
2022-12-19T00:52:49.096Z,97919.63
2022-12-19T00:55:18.721Z,97924.19
2022-12-19T00:57:46.405Z,97933.00
2022-12-19T01:00:13.545Z,97925.03
2022-12-19T01:02:40.301Z,97922.38
2022-12-19T01:05:07.238Z,97908.06
2022-12-19T01:07:33.885Z,97901.03
2022-12-19T01:10:00.532Z,97907.19
2022-12-19T01:12:27.169Z,97903.03
2022-12-19T01:14:55.199Z,97912.56
2022-12-19T01:17:30.778Z,97913.03
2022-12-19T01:19:57.415Z,97903.31
2022-12-19T01:22:24.035Z,97910.09
2022-12-19T01:24:50.669Z,97915.13
2022-12-19T01:27:17.363Z,97914.50
2022-12-19T01:29:52.554Z,97910.72
2022-12-19T01:32:20.484Z,97909.53
2022-12-19T01:34:47.137Z,97913.50
2022-12-19T01:37:13.784Z,97920.63
2022-12-19T01:39:40.466Z,97928.03
2022-12-19T01:42:19.586Z,97918.19
2022-12-19T01:45:05.202Z,97909.06
2022-12-19T01:47:31.873Z,97902.28
2022-12-19T01:49:58.493Z,97902.41
2022-12-19T01:52:25.143Z,97899.41
2022-12-19T01:54:51.876Z,97900.63
2022-12-19T01:57:18.532Z,97907.38
2022-12-19T01:59:48.330Z,97910.09
2022-12-19T02:02:35.457Z,97905.78
2022-12-19T02:05:02.215Z,97900.34
2022-12-19T02:07:28.856Z,97901.19
2022-12-19T02:09:57.335Z,97888.84
2022-12-19T02:12:24.623Z,97889.41
2022-12-19T02:14:51.510Z,97878.19
2022-12-19T02:17:35.353Z,97881.56
2022-12-19T02:20:22.624Z,97875.63
2022-12-19T02:23:07.980Z,97866.03
2022-12-19T02:25:42.556Z,97873.75
2022-12-19T02:28:45.815Z,97876.41
2022-12-19T02:31:24.658Z,97877.06
2022-12-19T02:34:30.510Z,97864.69
2022-12-19T02:37:11.786Z,97867.44
2022-12-19T02:39:52.721Z,97864.56
2022-12-19T02:42:32.078Z,97865.84
2022-12-19T02:44:58.954Z,97863.31
2022-12-19T02:47:25.604Z,97871.81
2022-12-19T02:49:52.235Z,97874.72
2022-12-19T02:52:18.753Z,97877.34
2022-12-19T02:54:45.831Z,97873.47
2022-12-19T02:57:20.031Z,97878.09
2022-12-19T03:00:02.839Z,97877.34
2022-12-19T03:02:48.511Z,97884.22
2022-12-19T03:05:59.393Z,97877.34
2022-12-19T03:08:45.998Z,97879.94
2022-12-19T03:11:13.295Z,97874.59
2022-12-19T03:13:56.499Z,97862.19
2022-12-19T03:16:23.246Z,97854.84
2022-12-19T03:18:49.966Z,97862.06
2022-12-19T03:21:20.786Z,97863.03
2022-12-19T03:23:47.461Z,97854.47
2022-12-19T03:26:18.990Z,97869.19
2022-12-19T03:28:52.792Z,97866.66
2022-12-19T03:31:20.837Z,97869.41
2022-12-19T03:33:48.127Z,97852.91
2022-12-19T03:36:17.414Z,97858.59
2022-12-19T03:38:44.070Z,97873.06
2022-12-19T03:41:11.007Z,97882.53
2022-12-19T03:43:37.649Z,97881.16
2022-12-19T03:46:18.820Z,97890.25
2022-12-19T03:48:47.388Z,97873.53
2022-12-19T03:51:35.732Z,97873.03
2022-12-19T03:54:24.448Z,97860.38
2022-12-19T03:57:09.528Z,97859.44
2022-12-19T03:59:51.108Z,97851.28
2022-12-19T04:02:18.455Z,97852.69
2022-12-19T04:04:47.019Z,97858.09
2022-12-19T04:07:13.745Z,97857.94
2022-12-19T04:09:41.681Z,97856.34
2022-12-19T04:12:11.387Z,97855.72
2022-12-19T04:14:38.024Z,97860.50
2022-12-19T04:17:07.498Z,97878.31
2022-12-19T04:20:02.990Z,97871.78
2022-12-19T04:22:32.307Z,97874.88
2022-12-19T04:24:59.262Z,97882.06
2022-12-19T04:27:25.922Z,97882.59
2022-12-19T04:29:54.640Z,97882.72
2022-12-19T04:32:21.302Z,97876.94
2022-12-19T04:34:47.949Z,97880.00
2022-12-19T04:37:14.585Z,97877.41
2022-12-19T04:39:41.222Z,97869.59
2022-12-19T04:42:07.842Z,97864.56
2022-12-19T04:44:34.487Z,97863.94
2022-12-19T04:47:01.126Z,97856.84
2022-12-19T04:49:27.744Z,97852.41
2022-12-19T04:51:54.468Z,97848.91
2022-12-19T04:54:21.729Z,97846.25
2022-12-19T04:56:48.367Z,97850.53
2022-12-19T04:59:14.976Z,97863.53
2022-12-19T05:01:41.741Z,97848.41
2022-12-19T05:04:08.515Z,97845.59
2022-12-19T05:06:35.190Z,97836.50
2022-12-19T05:09:01.847Z,97847.81
2022-12-19T05:11:28.500Z,97843.84
2022-12-19T05:13:55.157Z,97842.34
2022-12-19T05:16:21.879Z,97836.56
2022-12-19T05:18:48.537Z,97833.31
2022-12-19T05:21:15.180Z,97828.63
2022-12-19T05:23:41.841Z,97838.69
2022-12-19T05:26:08.479Z,97827.38
2022-12-19T05:28:35.132Z,97827.91
2022-12-19T05:31:09.185Z,97823.31
2022-12-19T05:33:36.148Z,97826.94
2022-12-19T05:36:02.767Z,97822.25
2022-12-19T05:38:29.419Z,97824.22
2022-12-19T05:40:56.061Z,97829.97
2022-12-19T05:43:22.837Z,97819.44
2022-12-19T05:45:49.626Z,97827.31
2022-12-19T05:48:16.280Z,97821.28
2022-12-19T05:50:47.547Z,97829.66
2022-12-19T05:53:14.164Z,97834.00
2022-12-19T05:55:41.081Z,97829.16
2022-12-19T05:58:07.729Z,97826.94
2022-12-19T06:00:34.362Z,97829.69
2022-12-19T06:03:01.052Z,97823.78
2022-12-19T06:05:27.760Z,97823.44
2022-12-19T06:07:54.387Z,97832.41
2022-12-19T06:10:21.058Z,97825.13
2022-12-19T06:12:47.730Z,97826.75
2022-12-19T06:15:14.373Z,97821.09
2022-12-19T06:17:41.188Z,97823.03
2022-12-19T06:20:08.216Z,97832.34
2022-12-19T06:22:34.896Z,97834.50
2022-12-19T06:25:01.552Z,97838.28
2022-12-19T06:27:28.177Z,97834.91
2022-12-19T06:29:54.809Z,97831.00
2022-12-19T06:32:21.476Z,97839.88
2022-12-19T06:35:03.667Z,97834.69
2022-12-19T06:37:30.950Z,97831.00
2022-12-19T06:39:57.608Z,97821.44
2022-12-19T06:42:24.437Z,97814.38
2022-12-19T06:44:56.238Z,97816.50
2022-12-19T06:47:23.176Z,97819.16
2022-12-19T06:49:49.837Z,97809.75
2022-12-19T06:52:17.037Z,97808.88
2022-12-19T06:54:43.674Z,97799.97
2022-12-19T06:57:10.313Z,97806.47
2022-12-19T06:59:37.319Z,97823.53
2022-12-19T07:02:18.491Z,97815.50
2022-12-19T07:04:52.780Z,97823.31
2022-12-19T07:07:19.503Z,97822.69
2022-12-19T07:09:46.152Z,97831.47
2022-12-19T07:12:12.780Z,97824.47
2022-12-19T07:14:39.382Z,97830.63
2022-12-19T07:17:06.037Z,97834.22
2022-12-19T07:19:32.704Z,97838.13
2022-12-19T07:21:59.798Z,97839.09
2022-12-19T07:24:26.452Z,97837.16
2022-12-19T07:26:53.105Z,97835.06
2022-12-19T07:29:19.748Z,97834.59
2022-12-19T07:31:46.491Z,97841.91
2022-12-19T07:34:13.126Z,97842.44
2022-12-19T07:36:39.765Z,97847.72
2022-12-19T07:39:06.417Z,97850.28
2022-12-19T07:41:35.653Z,97837.06
2022-12-19T07:44:02.858Z,97841.78
2022-12-19T07:46:30.002Z,97835.09
2022-12-19T07:48:56.629Z,97841.44
2022-12-19T07:51:23.280Z,97837.72
2022-12-19T07:53:49.915Z,97846.69
2022-12-19T07:56:16.565Z,97850.28
2022-12-19T07:58:43.339Z,97855.03
2022-12-19T08:01:10.117Z,97851.59
2022-12-19T08:03:36.905Z,97861.13
2022-12-19T08:06:04.858Z,97859.84
2022-12-19T08:08:31.569Z,97868.78
2022-12-19T08:11:08.232Z,97870.91
2022-12-19T08:13:39.720Z,97868.00
2022-12-19T08:16:06.656Z,97862.38
2022-12-19T08:18:33.296Z,97868.19
2022-12-19T08:20:59.949Z,97879.50
2022-12-19T08:23:26.653Z,97872.81
2022-12-19T08:26:03.396Z,97875.66
2022-12-19T08:28:30.967Z,97865.91
2022-12-19T08:30:57.683Z,97864.25
2022-12-19T08:33:24.359Z,97866.97
2022-12-19T08:35:51.016Z,97863.25
2022-12-19T08:38:17.710Z,97850.16
2022-12-19T08:40:47.339Z,97856.41
2022-12-19T08:43:14.364Z,97855.63
2022-12-19T08:45:41.069Z,97850.13
2022-12-19T08:48:07.745Z,97852.41
2022-12-19T08:50:34.399Z,97846.47
2022-12-19T08:53:01.098Z,97850.44
2022-12-19T08:55:27.769Z,97855.44
2022-12-19T08:57:56.415Z,97856.59
2022-12-19T09:00:23.106Z,97861.19
2022-12-19T09:02:51.087Z,97871.97
2022-12-19T09:06:01.028Z,97878.75
2022-12-19T09:08:04.704Z,97869.28
2022-12-19T09:10:31.384Z,97885.06
2022-12-19T09:12:58.487Z,97876.91
2022-12-19T09:15:25.147Z,97870.91
2022-12-19T09:17:51.820Z,97877.81
2022-12-19T09:20:23.174Z,97884.69
2022-12-19T09:22:50.414Z,97875.41
2022-12-19T09:25:17.098Z,97867.59
2022-12-19T09:28:17.970Z,97887.00
2022-12-19T09:30:30.432Z,97881.69
2022-12-19T09:32:58.524Z,97882.66
2022-12-19T09:35:30.040Z,97879.19
2022-12-19T09:38:00.356Z,97882.66
2022-12-19T09:40:28.052Z,97886.91
2022-12-19T09:43:41.404Z,97879.25
2022-12-19T09:46:18.719Z,97884.66
2022-12-19T09:48:54.200Z,97878.97
2022-12-19T09:51:57.347Z,97883.81
2022-12-19T09:54:27.971Z,97873.72
2022-12-19T09:57:02.863Z,97865.03
2022-12-19T09:59:45.968Z,97869.63
2022-12-19T10:02:33.868Z,97869.19
2022-12-19T10:05:41.550Z,97869.50
2022-12-19T10:08:09.622Z,97865.06
2022-12-19T10:12:36.203Z,97873.06
2022-12-19T10:14:22.134Z,97869.06
2022-12-19T10:17:23.255Z,97865.84
2022-12-19T10:19:50.846Z,97853.94
2022-12-19T10:22:29.656Z,97857.31
2022-12-19T10:25:08.448Z,97858.31
2022-12-19T10:27:59.287Z,97849.88
2022-12-19T10:30:27.949Z,97845.28
2022-12-19T10:33:06.960Z,97842.75
2022-12-19T10:35:41.420Z,97848.47
2022-12-19T10:38:11.006Z,97845.81
2022-12-19T10:40:49.885Z,97844.84
2022-12-19T10:43:33.684Z,97846.97
2022-12-19T10:46:04.045Z,97834.75
2022-12-19T10:48:31.626Z,97834.91
2022-12-19T10:50:58.798Z,97838.25
2022-12-19T10:53:32.698Z,97830.84
2022-12-19T10:56:03.343Z,97833.63
2022-12-19T10:58:35.214Z,97839.94
2022-12-19T11:01:15.984Z,97836.44
2022-12-19T11:03:46.594Z,97828.00
2022-12-19T11:06:35.260Z,97817.19
2022-12-19T11:09:20.527Z,97823.94
2022-12-19T11:14:33.073Z,97824.63
2022-12-19T11:19:15.078Z,97830.53
2022-12-19T11:24:39.487Z,97829.69
2022-12-19T11:29:26.190Z,97831.38
2022-12-19T11:29:37.049Z,97826.34
2022-12-19T11:30:46.077Z,97822.56
2022-12-19T11:30:59.414Z,97814.53
2022-12-19T11:34:22.525Z,97817.06
2022-12-19T11:37:00.294Z,97805.03
2022-12-19T11:39:50.069Z,97812.59
2022-12-19T11:42:25.915Z,97804.88
2022-12-19T11:45:14.992Z,97803.50
2022-12-19T11:47:48.568Z,97799.25
2022-12-19T11:50:18.543Z,97796.50
2022-12-19T11:53:26.719Z,97790.72
2022-12-19T11:55:56.075Z,97783.13
2022-12-19T11:58:22.861Z,97783.88
2022-12-19T12:01:02.105Z,97783.44
2022-12-19T12:03:54.746Z,97791.03
2022-12-19T12:06:34.380Z,97785.25
2022-12-19T12:13:22.354Z,97784.69
2022-12-19T12:21:00.189Z,97784.84
2022-12-19T12:27:31.035Z,97786.78
2022-12-19T12:30:59.799Z,97775.88
2022-12-19T12:31:13.349Z,97784.41
2022-12-19T12:31:15.365Z,97776.00
2022-12-19T12:31:49.894Z,97789.59
2022-12-19T12:31:52.581Z,97793.81
2022-12-19T12:35:42.533Z,97791.56
2022-12-19T12:40:00.483Z,97782.59
2022-12-19T12:42:45.769Z,97779.63
2022-12-19T12:45:19.668Z,97781.44
2022-12-19T12:47:48.113Z,97780.22
2022-12-19T12:50:15.987Z,97776.69
2022-12-19T12:52:44.353Z,97778.09
2022-12-19T12:55:31.244Z,97768.84
2022-12-19T12:57:58.007Z,97754.38
2022-12-19T13:00:31.829Z,97764.88
2022-12-19T13:03:11.439Z,97758.31
2022-12-19T13:05:51.516Z,97746.94
2022-12-19T13:08:34.170Z,97747.91
2022-12-19T13:11:02.630Z,97746.81
2022-12-19T13:13:58.689Z,97749.19
2022-12-19T13:16:43.745Z,97747.22
2022-12-19T13:19:25.861Z,97738.69
2022-12-19T13:22:03.784Z,97739.78
2022-12-19T13:24:49.154Z,97737.81
2022-12-19T13:27:18.529Z,97733.31
2022-12-19T13:30:00.312Z,97735.88
2022-12-19T13:32:27.835Z,97734.16
2022-12-19T13:35:56.523Z,97742.88
2022-12-19T13:40:01.196Z,97741.31
2022-12-19T13:41:00.439Z,97738.25
2022-12-19T13:43:47.218Z,97744.00
2022-12-19T13:46:36.954Z,97745.97
2022-12-19T13:49:09.765Z,97749.06
2022-12-19T13:51:47.212Z,97735.59
2022-12-19T13:54:25.978Z,97748.91
2022-12-19T13:56:53.256Z,97740.91
2022-12-19T13:59:20.826Z,97736.56
2022-12-19T14:01:47.596Z,97738.09
2022-12-19T14:04:30.621Z,97744.56
2022-12-19T14:07:02.140Z,97748.38
2022-12-19T14:11:28.300Z,97750.31
2022-12-19T14:13:56.536Z,97751.03
2022-12-19T14:15:27.360Z,97764.91
2022-12-19T14:17:54.112Z,97766.16
2022-12-19T14:22:01.896Z,97756.63
2022-12-19T14:23:12.552Z,97765.59
2022-12-19T14:28:15.730Z,97761.78
2022-12-19T14:29:03.302Z,97772.31
2022-12-19T14:31:30.047Z,97758.97
2022-12-19T14:34:43.386Z,97763.91
2022-12-19T14:36:51.987Z,97757.97
2022-12-19T14:39:24.342Z,97757.03
2022-12-19T14:42:02.144Z,97759.28
2022-12-19T14:52:08.147Z,97767.13
2022-12-19T14:54:12.864Z,97770.38
2022-12-19T14:54:16.335Z,97770.09
2022-12-19T14:54:26.802Z,97773.06
2022-12-19T14:59:01.267Z,97760.94
2022-12-19T15:01:29.976Z,97766.59
2022-12-19T15:04:49.245Z,97768.81
2022-12-19T15:07:08.551Z,97771.47
2022-12-19T15:10:59.935Z,97758.75
2022-12-19T15:14:48.756Z,97761.56
2022-12-19T15:15:44.921Z,97764.91
2022-12-19T15:18:24.694Z,97770.06
2022-12-19T15:20:51.956Z,97771.47
2022-12-19T15:23:22.430Z,97765.47
2022-12-19T15:26:06.974Z,97763.88
2022-12-19T15:28:46.609Z,97758.66
2022-12-19T15:31:33.244Z,97757.94
2022-12-19T15:34:32.833Z,97752.19
2022-12-19T15:36:46.948Z,97755.03
2022-12-19T15:39:13.723Z,97747.84
2022-12-19T15:41:40.363Z,97743.59
2022-12-19T15:44:14.322Z,97748.88
2022-12-19T15:46:48.098Z,97753.59
2022-12-19T15:49:19.312Z,97750.56
2022-12-19T15:51:46.243Z,97755.47
2022-12-19T15:54:47.218Z,97750.72
2022-12-19T15:56:59.577Z,97754.13
2022-12-19T15:59:37.430Z,97755.66
2022-12-19T16:02:13.787Z,97751.69
2022-12-19T16:04:40.659Z,97760.47
2022-12-19T16:07:17.805Z,97759.69
2022-12-19T16:09:44.927Z,97760.72
2022-12-19T16:12:36.677Z,97743.72
2022-12-19T16:15:03.901Z,97746.22
2022-12-19T16:17:31.901Z,97753.16
2022-12-19T16:19:58.612Z,97754.78
2022-12-19T16:22:26.460Z,97748.53
2022-12-19T16:24:54.228Z,97743.38
2022-12-19T16:27:30.485Z,97736.16
2022-12-19T16:29:58.976Z,97735.06
2022-12-19T16:32:25.860Z,97725.78
2022-12-19T16:34:52.888Z,97718.19
2022-12-19T16:37:19.602Z,97720.34
2022-12-19T16:39:46.294Z,97723.91
2022-12-19T16:42:16.220Z,97728.16
2022-12-19T16:44:43.572Z,97721.81
2022-12-19T16:47:13.955Z,97725.31
2022-12-19T16:49:40.655Z,97723.63
2022-12-19T16:52:07.359Z,97726.00
2022-12-19T16:54:34.113Z,97723.13
2022-12-19T16:57:00.759Z,97720.06
2022-12-19T16:59:31.420Z,97724.03
2022-12-19T17:01:58.166Z,97715.47
2022-12-19T17:04:25.072Z,97714.88
2022-12-19T17:06:52.459Z,97716.38
2022-12-19T17:09:22.855Z,97708.91
2022-12-19T17:12:09.677Z,97695.72
2022-12-19T17:14:36.342Z,97703.84
2022-12-19T17:17:03.091Z,97708.94
2022-12-19T17:19:35.013Z,97707.84
2022-12-19T17:22:01.685Z,97709.56
2022-12-19T17:24:28.305Z,97714.63
2022-12-19T17:26:55.058Z,97706.34
2022-12-19T17:29:21.684Z,97705.63
2022-12-19T17:31:48.361Z,97704.47
2022-12-19T17:34:20.264Z,97716.06
2022-12-19T17:36:46.932Z,97705.69
2022-12-19T17:39:24.122Z,97697.84
2022-12-19T17:41:50.878Z,97699.34
2022-12-19T17:44:17.615Z,97699.72
2022-12-19T17:46:44.948Z,97697.69
2022-12-19T17:49:21.354Z,97698.84
2022-12-19T17:51:50.067Z,97705.25
2022-12-19T17:54:16.726Z,97701.41
2022-12-19T17:56:43.598Z,97705.88
2022-12-19T17:59:10.309Z,97706.84
2022-12-19T18:01:37.118Z,97707.31
2022-12-19T18:04:04.023Z,97711.09
2022-12-19T18:06:30.659Z,97713.31
2022-12-19T18:08:57.301Z,97716.69
2022-12-19T18:11:25.378Z,97715.41
2022-12-19T18:13:52.857Z,97712.41
2022-12-19T18:16:21.742Z,97704.06
2022-12-19T18:18:48.445Z,97718.91
2022-12-19T18:21:15.965Z,97717.22
2022-12-19T18:23:42.720Z,97725.13
2022-12-19T18:26:10.483Z,97724.69
2022-12-19T18:28:37.210Z,97719.88
2022-12-19T18:31:18.148Z,97716.25
2022-12-19T18:33:46.318Z,97711.19
2022-12-19T18:36:20.232Z,97717.59
2022-12-19T18:38:47.556Z,97721.22
2022-12-19T18:41:14.600Z,97714.81
2022-12-19T18:43:42.538Z,97721.53
2022-12-19T18:46:24.805Z,97713.94
2022-12-19T18:48:51.547Z,97722.75
2022-12-19T18:51:19.701Z,97731.69
2022-12-19T18:53:46.879Z,97722.56
2022-12-19T18:56:13.621Z,97717.38
2022-12-19T18:58:40.474Z,97708.13
2022-12-19T19:01:14.709Z,97706.84
2022-12-19T19:03:41.495Z,97707.19
2022-12-19T19:06:21.041Z,97712.50
2022-12-19T19:08:47.740Z,97708.38
2022-12-19T19:11:14.649Z,97700.34
2022-12-19T19:13:41.912Z,97697.41
2022-12-19T19:16:26.698Z,97704.03
2022-12-19T19:18:54.531Z,97695.38
2022-12-19T19:21:22.535Z,97677.91
2022-12-19T19:24:04.079Z,97695.78
2022-12-19T19:26:30.738Z,97691.91
2022-12-19T19:28:58.529Z,97681.22
2022-12-19T19:31:25.651Z,97682.91
2022-12-19T19:33:58.021Z,97679.06
2022-12-19T19:36:27.547Z,97671.66
2022-12-19T19:38:54.768Z,97667.47
2022-12-19T19:41:22.284Z,97669.50
2022-12-19T19:43:48.937Z,97669.91
2022-12-19T19:46:15.626Z,97677.78
2022-12-19T19:48:42.313Z,97668.09
2022-12-19T19:51:08.984Z,97660.56
2022-12-19T19:53:36.156Z,97662.50
2022-12-19T19:56:02.859Z,97666.06
2022-12-19T19:58:29.503Z,97668.00
2022-12-19T20:00:56.154Z,97664.88
2022-12-19T20:03:23.856Z,97672.56
2022-12-19T20:05:50.851Z,97656.72
2022-12-19T20:08:17.531Z,97664.19
2022-12-19T20:10:44.241Z,97666.84
2022-12-19T20:13:10.897Z,97663.22
2022-12-19T20:15:37.612Z,97661.81
2022-12-19T20:18:04.314Z,97665.66
2022-12-19T20:20:33.064Z,97664.25
2022-12-19T20:22:59.764Z,97662.16
2022-12-19T20:25:26.539Z,97662.28
2022-12-19T20:27:53.213Z,97671.56
2022-12-19T20:30:19.876Z,97669.13
2022-12-19T20:32:46.516Z,97650.19
2022-12-19T20:35:15.000Z,97667.56
2022-12-19T20:37:42.275Z,97645.91
2022-12-19T20:40:09.562Z,97651.63
2022-12-19T20:42:36.168Z,97656.50
2022-12-19T20:45:03.074Z,97660.84
2022-12-19T20:47:29.707Z,97653.25
2022-12-19T20:49:56.364Z,97660.13
2022-12-19T20:52:22.989Z,97653.03
2022-12-19T20:54:49.609Z,97657.91
2022-12-19T20:57:16.277Z,97670.06
2022-12-19T20:59:42.913Z,97667.66
2022-12-19T21:02:11.538Z,97668.66
2022-12-19T21:04:38.769Z,97667.94
2022-12-19T21:07:05.524Z,97672.69
2022-12-19T21:09:32.428Z,97675.03
2022-12-19T21:11:59.105Z,97682.59
2022-12-19T21:14:25.782Z,97681.06
2022-12-19T21:16:52.420Z,97671.53
2022-12-19T21:19:21.440Z,97678.09
2022-12-19T21:21:48.124Z,97666.06
2022-12-19T21:24:14.804Z,97669.69
2022-12-19T21:26:41.459Z,97670.00
2022-12-19T21:29:08.174Z,97661.94
2022-12-19T21:31:34.904Z,97653.25
2022-12-19T21:34:01.706Z,97643.44
2022-12-19T21:36:29.168Z,97650.03
2022-12-19T21:38:57.197Z,97647.97
2022-12-19T21:41:23.886Z,97644.00
2022-12-19T21:43:52.158Z,97642.56
2022-12-19T21:46:19.725Z,97643.44
2022-12-19T21:48:47.812Z,97645.22
2022-12-19T21:51:14.626Z,97640.13
2022-12-19T21:53:41.319Z,97646.78
2022-12-19T21:56:22.431Z,97646.09
2022-12-19T21:58:50.680Z,97642.84
2022-12-19T22:01:17.432Z,97643.91
2022-12-19T22:03:45.248Z,97628.06
2022-12-19T22:06:22.390Z,97632.66
2022-12-19T22:08:52.258Z,97633.97
2022-12-19T22:11:19.870Z,97627.28
2022-12-19T22:13:46.993Z,97622.59
2022-12-19T22:16:13.713Z,97623.94
2022-12-19T22:18:40.371Z,97633.09
2022-12-19T22:21:07.841Z,97624.91
2022-12-19T22:23:34.551Z,97625.63
2022-12-19T22:26:08.864Z,97626.84
2022-12-19T22:28:36.988Z,97616.72
2022-12-19T22:31:04.328Z,97616.03
2022-12-19T22:33:30.997Z,97622.28
2022-12-19T22:35:57.682Z,97612.41
2022-12-19T22:38:24.486Z,97615.88
2022-12-19T22:40:51.477Z,97612.84
2022-12-19T22:43:18.132Z,97613.13
2022-12-19T22:45:44.791Z,97598.28
2022-12-19T22:48:11.482Z,97606.41
2022-12-19T22:50:43.649Z,97612.66
2022-12-19T22:53:12.842Z,97606.38
2022-12-19T22:55:39.925Z,97612.09
2022-12-19T22:58:06.725Z,97606.44
2022-12-19T23:00:33.357Z,97605.13
2022-12-19T23:03:00.246Z,97602.94
2022-12-19T23:05:27.453Z,97602.00
2022-12-19T23:07:54.121Z,97607.09
2022-12-19T23:10:20.790Z,97607.09
2022-12-19T23:12:47.492Z,97604.34
2022-12-19T23:15:14.252Z,97604.44
2022-12-19T23:17:40.984Z,97605.41
2022-12-19T23:20:08.533Z,97601.31
2022-12-19T23:22:35.168Z,97601.41
2022-12-19T23:25:02.041Z,97608.03
2022-12-19T23:27:28.708Z,97607.28
2022-12-19T23:29:55.327Z,97612.91
2022-12-19T23:32:22.014Z,97602.19
2022-12-19T23:34:48.712Z,97619.31
2022-12-19T23:37:15.355Z,97630.16
2022-12-19T23:39:42.010Z,97623.66
2022-12-19T23:42:08.944Z,97619.53
2022-12-19T23:44:35.864Z,97631.09
2022-12-19T23:47:03.765Z,97625.59
2022-12-19T23:49:31.608Z,97623.03
2022-12-19T23:51:58.250Z,97619.25
2022-12-19T23:54:24.867Z,97623.97
2022-12-19T23:56:51.507Z,97620.19
2022-12-19T23:59:18.167Z,97609.34
